ヤクーツク空港の過去48時間の天気

ヤクーツク空港 (Jakutsk)

現在時刻: 2/21 12:41 +09 (2/21 03:41 UTC) 以下の時間は現地時間です。

過去48時間のMETAR気象情報
時間 風向 風速(m/s) 視程 気温(℃) 湿度(%) 気圧(hPa) 天気現象
21 12:00 北北東 1 10km以上 -25 83 1019
21 11:30 1 10km以上 -25 76 1019
21 11:00 1 10km以上 -26 83 1020
21 10:30 1 10km以上 -26 76 1020
21 10:00 1 10km以上 -27 76 1021
21 09:30 1 10km以上 -28 75 1021
21 09:00 1 10km以上 -29 75 1021
21 08:30 1 10km以上 -29 75 1022
21 08:00 北北西 1 10km以上 -29 75 1022
21 07:30 北北西 2 5000m -29 75 1022 もや
21 07:00 2 10km以上 -29 75 1022
21 06:30 北北西 2 10km以上 -30 75 1023
21 06:00 1 10km以上 -30 75 1023
21 05:30 北北西 1 10km以上 -30 75 1023
21 05:00 2 10km以上 -29 75 1023
21 04:30 北北西 1 10km以上 -30 68 1024
21 04:00 北北西 2 10km以上 -30 68 1024
21 03:30 1 10km以上 -30 75 1024
21 03:00 北北西 1 10km以上 -30 68 1024
21 02:30 2 10km以上 -30 75 1024
21 02:00 北西 1 10km以上 -30 68 1025
21 01:30 北北西 2 10km以上 -30 75 1025
21 01:00 北北東 2 10km以上 -29 68 1025
21 00:30 2 10km以上 -29 68 1025
21 00:00 1 10km以上 -30 75 1025
20 23:30 2 10km以上 -30 75 1025
20 23:00 1 10km以上 -29 68 1026
20 22:30 北北西 1 10km以上 -29 75 1026
20 22:00 北北西 1 10km以上 -30 75 1026 弱い雪
20 21:30 北北西 1 10km以上 -30 75 1026 弱い雪
20 21:00 北北西 1 10km以上 -31 75 1026 弱い雪
20 20:30 1 10km以上 -29 75 1026 弱い雪
20 20:00 1 10km以上 -29 75 1026 弱い雪
20 19:30 北北西 1 10km以上 -30 75 1027 弱い雪
20 19:00 北西 1 10km以上 -31 75 1027
20 18:30 1 10km以上 -32 75 1027
20 18:00 北北西 1 10km以上 -31 75 1027
20 17:30 1 10km以上 -31 68 1027
20 17:00 静穏 0 10km以上 -31 75 1027
20 16:30 静穏 0 5000m -30 75 1027 もや
20 16:00 静穏 0 5000m -30 68 1027 もや
20 15:30 静穏 0 5000m -30 75 1027 もや
20 15:00 静穏 0 5000m -30 75 1027 もや
20 14:30 静穏 0 3200m -30 75 1027 もや
20 14:00 静穏 0 3200m -31 82 1027 もや
20 13:30 北東 1 5000m -31 75 1027 もや
20 13:00 静穏 0 5000m -30 68 1027 もや
20 12:30 静穏 0 5000m -31 68 1028 もや
20 12:00 北北西 1 3200m -33 74 1028 もや
20 11:30 2 2400m -34 74 1028 もや
20 11:00 静穏 0 1500m -35 74 1028 もや
20 10:30 静穏 0 1900m -34 67 1028
20 10:00 静穏 0 900m -35 67 1028
20 09:30 静穏 0 800m -36 67 1028
20 09:00 西北西 1 500m -38 66 1028
20 08:30 静穏 0 600m -38 66 1028
20 08:00 北北西 1 600m -38 66 1028
20 07:30 北北西 1 800m -39 66 1028
20 07:00 静穏 0 1200m -38 66 1028 もや
20 06:30 静穏 0 900m -38 66 1028
20 06:00 西北西 1 1000m -38 66 1028
20 05:30 北西 1 1500m -38 66 1028 もや
20 05:00 静穏 0 2000m -38 66 1027 もや
20 04:30 静穏 0 5000m -38 66 1028 もや
UEEE 210300Z 02001MPS CAVOK M25/M27 Q1019 R23L/450154 NOSIG RMK QFE755
UEEE 210230Z 36001MPS CAVOK M25/M28 Q1019 R23L/450154 NOSIG RMK QFE756
UEEE 210200Z 36001MPS CAVOK M26/M28 Q1020 R23L/450154 NOSIG RMK QFE756
UEEE 210130Z 36001MPS CAVOK M26/M29 Q1020 R23L/450154 NOSIG RMK QFE756
UEEE 210100Z 35001MPS CAVOK M27/M30 Q1021 R23L/450154 NOSIG RMK QFE757
UEEE 210030Z 36001MPS CAVOK M28/M31 Q1021 R23L/490154 NOSIG RMK QFE757
UEEE 210000Z 36001MPS CAVOK M29/M32 Q1021 R23L/490154 NOSIG RMK QFE757
UEEE 202330Z 01001MPS CAVOK M29/M32 Q1022 R23L/490154 NOSIG RMK QFE757
UEEE 202300Z 34001MPS CAVOK M29/M32 Q1022 R23L/490154 NOSIG RMK QFE758
UEEE 202230Z 34002MPS 5000 BR NSC M29/M32 Q1022 R23L/490154 NOSIG RMK QFE758
UEEE 202200Z 35002MPS CAVOK M29/M32 Q1022 R23L/490154 NOSIG RMK QFE758
UEEE 202130Z 34002MPS CAVOK M30/M33 Q1023 R23L/490154 NOSIG RMK QFE758
UEEE 202100Z 35001MPS CAVOK M30/M33 Q1023 R23L/490154 NOSIG RMK QFE758
UEEE 202030Z 34001MPS CAVOK M30/M33 Q1023 R23L/490154 NOSIG RMK QFE758
UEEE 202000Z 36002MPS CAVOK M29/M32 Q1023 R23L/490154 NOSIG RMK QFE759
UEEE 201930Z 33001MPS CAVOK M30/M34 Q1024 R23L/490154 NOSIG RMK QFE759
UEEE 201900Z 34002MPS CAVOK M30/M34 Q1024 R23L/490154 NOSIG RMK QFE759
UEEE 201830Z 35001MPS CAVOK M30/M33 Q1024 R23L/490154 NOSIG RMK QFE759
UEEE 201800Z 34001MPS CAVOK M30/M34 Q1024 R23L/490154 NOSIG RMK QFE759
UEEE 201730Z 35002MPS CAVOK M30/M33 Q1024 R23L/490154 NOSIG RMK QFE759
UEEE 201700Z 32001MPS CAVOK M30/M34 Q1025 R23L/490154 NOSIG RMK QFE760
UEEE 201630Z 33002MPS CAVOK M30/M33 Q1025 R23L/490154 NOSIG RMK QFE760
UEEE 201600Z 02002MPS CAVOK M29/M33 Q1025 R23L/490154 NOSIG RMK QFE760
UEEE 201530Z 36002MPS CAVOK M29/M33 Q1025 R23L/490154 NOSIG RMK QFE760
UEEE 201500Z 35001MPS CAVOK M30/M33 Q1025 R23L/490154 NOSIG RMK QFE760
UEEE 201430Z 36002MPS CAVOK M30/M33 Q1025 R23L/490154 NOSIG RMK QFE760
UEEE 201400Z 36001MPS CAVOK M29/M33 Q1026 R23L/490154 NOSIG RMK QFE760
UEEE 201330Z 34001MPS CAVOK M29/M32 Q1026 R23L/490154 NOSIG RMK QFE760
UEEE 201300Z 33001MPS 9999 -SN NSC M30/M33 Q1026 R23L/490154 NOSIG RMK QFE761
UEEE 201230Z 34001MPS 9999 -SN NSC M30/M33 Q1026 R23L/450154 NOSIG RMK QFE761
UEEE 201200Z 34001MPS 9999 -SN NSC M31/M34 Q1026 R23L/450154 NOSIG RMK QFE761
UEEE 201130Z 36001MPS 9999 -SN NSC M29/M32 Q1026 R23L/450150 NOSIG RMK QFE761
UEEE 201100Z 35001MPS 9999 -SN NSC M29/M32 Q1026 R23L/450150 NOSIG RMK QFE761
UEEE 201030Z 33001MPS 9999 -SN NSC M30/M33 Q1027 R23L/450150 NOSIG RMK QFE761
UEEE 201000Z 32001MPS CAVOK M31/M34 Q1027 R23L/450150 NOSIG RMK QFE761
UEEE 200930Z 35001MPS CAVOK M32/M35 Q1027 R23L/450150 NOSIG RMK QFE761
UEEE 200900Z 34001MPS CAVOK M31/M34 Q1027 R23L/450150 NOSIG RMK QFE761
UEEE 200830Z 36001MPS CAVOK M31/M35 Q1027 R23L/450150 NOSIG RMK QFE761
UEEE 200800Z 00000MPS CAVOK M31/M34 Q1027 R23L/450150 NOSIG RMK QFE761
UEEE 200730Z 00000MPS 5000 BR NSC M30/M33 Q1027 R23L/450150 NOSIG RMK QFE761
UEEE 200700Z 00000MPS 5000 BR NSC M30/M34 Q1027 R23L/450150 NOSIG RMK QFE761
UEEE 200630Z 00000MPS 5000 BR NSC M30/M33 Q1027 R23L/450150 NOSIG RMK QFE761
UEEE 200600Z 00000MPS 5000 BR NSC M30/M33 Q1027 R23L/450150 NOSIG RMK QFE761
UEEE 200530Z 00000MPS 3200 BR NSC M30/M33 Q1027 R23L/450150 NOSIG RMK QFE762
UEEE 200500Z 00000MPS 3200 BR NSC M31/M33 Q1027 R23L/450150 NOSIG RMK QFE762
UEEE 200430Z 05001MPS 5000 BR NSC M31/M34 Q1027 R23L/450150 NOSIG RMK QFE762
UEEE 200400Z 00000MPS 5000 BR NSC M30/M34 Q1027 R23L/450150 NOSIG RMK QFE762
UEEE 200330Z 00000MPS 5000 BR NSC M31/M35 Q1028 R23L/450150 NOSIG RMK QFE762
UEEE 200300Z 34001MPS 3200 BR NSC M33/M36 Q1028 R23L/450150 NOSIG RMK QFE762
UEEE 200230Z 10002MPS 2400 BR NSC M34/M37 Q1028 R23L/450150 NOSIG RMK QFE762
UEEE 200200Z 00000MPS 1500 1100SW R23L/1500N BR NSC M35/M38 Q1028 R23L/450150 NOSIG RMK QFE762
UEEE 200130Z 00000MPS 1900 0100NE R23L/0125D FG NSC M34/M38 Q1028 R23L/450150 NOSIG RMK QFE762
UEEE 200100Z 00000MPS 0900 R23L/0900N FG NSC M35/M39 Q1028 R23L/450150 NOSIG RMK QFE762
UEEE 200030Z 00000MPS 0800 0700NE R23L/0700N FG NSC M36/M40 Q1028 R23L/450149 NOSIG RMK QFE762
UEEE 200000Z 30001MPS 0500 R23L/0550N FG NSC M38/M42 Q1028 R23L/450149 NOSIG RMK QFE762
UEEE 192330Z 00000MPS 0600 0550NE R23L/0600N FG SCT008 M38/M42 Q1028 R23L/450149 NOSIG RMK QFE762
UEEE 192300Z 34001MPS 0600 0550NE R23L/0600N FG SCT008 M38/M42 Q1028 R23L/450149 NOSIG RMK QFE762
UEEE 192230Z 33001MPS 0800 0550NE R23L/0750N FG SCT008 M39/M43 Q1028 R23L/450149 NOSIG RMK QFE762
UEEE 192200Z 00000MPS 1200 R23L/P2000U BR NSC M38/M42 Q1028 R23L/450149 NOSIG RMK QFE762
UEEE 192130Z 00000MPS 0900 R23L/1900N FG SCT010 M38/M42 Q1028 R23L/450149 NOSIG RMK QFE762
UEEE 192100Z 30001MPS 1000 0900NE R23L/1900D FG SCT010 M38/M42 Q1028 R23L/450149 NOSIG RMK QFE762
UEEE 192030Z 32001MPS 1500 R23L/P2000D BR SCT010 M38/M42 Q1028 R23L/450149 NOSIG RMK QFE762
UEEE 192000Z 00000MPS 2000 R23L/P2000U BR NSC M38/M42 Q1027 R23L/450149 NOSIG RMK QFE762
UEEE 191930Z 00000MPS 5000 BR NSC M38/M42 Q1028 R23L/450149 NOSIG RMK QFE762